createdAt,value
2023-01-17T00:00:13.156Z,89619.13
2023-01-17T00:02:59.364Z,89626.47
2023-01-17T00:05:45.544Z,89619.78
2023-01-17T00:08:31.490Z,89620.53
2023-01-17T00:11:17.300Z,89621.31
2023-01-17T00:14:03.196Z,89617.19
2023-01-17T00:16:49.098Z,89620.56
2023-01-17T00:19:34.873Z,89622.41
2023-01-17T00:22:20.857Z,89615.75
2023-01-17T00:25:06.806Z,89612.41
2023-01-17T00:27:52.687Z,89608.78
2023-01-17T00:30:38.641Z,89604.72
2023-01-17T00:33:24.576Z,89614.72
2023-01-17T00:36:10.506Z,89602.47
2023-01-17T00:38:56.404Z,89602.09
2023-01-17T00:41:42.187Z,89597.28
2023-01-17T00:44:28.211Z,89597.97
2023-01-17T00:47:14.164Z,89594.28
2023-01-17T00:49:59.994Z,89594.69
2023-01-17T00:52:45.929Z,89587.56
2023-01-17T00:55:31.656Z,89577.94
2023-01-17T00:58:17.479Z,89567.13
2023-01-17T01:01:03.483Z,89564.22
2023-01-17T01:03:49.385Z,89560.84
2023-01-17T01:06:35.340Z,89556.38
2023-01-17T01:09:21.156Z,89550.78
2023-01-17T01:12:07.057Z,89548.50
2023-01-17T01:14:52.996Z,89549.41
2023-01-17T01:17:38.862Z,89549.34
2023-01-17T01:20:24.726Z,89548.53
2023-01-17T01:23:10.633Z,89542.47
2023-01-17T01:25:56.639Z,89537.59
2023-01-17T01:28:42.538Z,89534.66
2023-01-17T01:31:28.417Z,89527.31
2023-01-17T01:34:14.405Z,89528.78
2023-01-17T01:37:00.266Z,89529.81
2023-01-17T01:39:45.984Z,89518.59
2023-01-17T01:42:31.817Z,89512.13
2023-01-17T01:45:17.666Z,89516.97
2023-01-17T01:48:03.493Z,89510.47
2023-01-17T01:50:49.397Z,89503.31
2023-01-17T01:53:35.197Z,89502.41
2023-01-17T01:56:21.021Z,89500.53
2023-01-17T01:59:07.035Z,89499.22
2023-01-17T02:01:52.972Z,89490.28
2023-01-17T02:04:39.348Z,89496.75
2023-01-17T02:07:25.192Z,89495.06
2023-01-17T02:10:11.022Z,89490.25
2023-01-17T02:12:56.868Z,89487.72
2023-01-17T02:15:42.637Z,89490.84
2023-01-17T02:18:28.430Z,89480.94
2023-01-17T02:21:14.273Z,89482.56
2023-01-17T02:24:00.182Z,89468.59
2023-01-17T02:26:46.136Z,89452.91
2023-01-17T02:29:31.895Z,89458.03
2023-01-17T02:32:17.936Z,89454.13
2023-01-17T02:35:03.652Z,89448.56
2023-01-17T02:37:49.430Z,89440.25
2023-01-17T02:40:35.411Z,89436.56
2023-01-17T02:43:21.240Z,89438.25
2023-01-17T02:46:09.582Z,89439.53
2023-01-17T02:48:55.756Z,89425.63
2023-01-17T02:51:41.632Z,89422.66
2023-01-17T02:54:27.548Z,89424.47
2023-01-17T02:57:13.384Z,89417.63
2023-01-17T02:59:59.228Z,89404.19
2023-01-17T03:02:45.163Z,89395.09
2023-01-17T03:05:30.969Z,89390.09
2023-01-17T03:08:16.748Z,89375.03
2023-01-17T03:11:02.734Z,89374.94
2023-01-17T03:13:48.575Z,89372.00
2023-01-17T03:16:34.550Z,89355.44
2023-01-17T03:19:20.422Z,89361.97
2023-01-17T03:22:06.242Z,89363.03
2023-01-17T03:24:52.086Z,89360.59
2023-01-17T03:27:38.056Z,89351.09
2023-01-17T03:30:23.977Z,89346.69
2023-01-17T03:33:09.832Z,89342.78
2023-01-17T03:35:55.561Z,89337.84
2023-01-17T03:38:41.283Z,89335.44
2023-01-17T03:41:27.201Z,89331.84
2023-01-17T03:44:13.091Z,89338.44
2023-01-17T03:46:58.922Z,89332.47
2023-01-17T03:49:44.657Z,89323.88
2023-01-17T03:52:30.469Z,89321.44
2023-01-17T03:55:16.490Z,89308.19
2023-01-17T03:58:02.261Z,89305.31
2023-01-17T04:00:48.386Z,89301.25
2023-01-17T04:03:36.295Z,89300.53
2023-01-17T04:06:21.969Z,89295.31
2023-01-17T04:09:07.920Z,89286.50
2023-01-17T04:11:53.877Z,89286.97
2023-01-17T04:14:39.703Z,89290.84
2023-01-17T04:17:25.602Z,89286.84
2023-01-17T04:20:11.391Z,89284.59
2023-01-17T04:22:57.241Z,89277.53
2023-01-17T04:25:43.053Z,89279.75
2023-01-17T04:28:28.852Z,89269.06
2023-01-17T04:31:15.009Z,89276.47
2023-01-17T04:34:01.126Z,89273.44
2023-01-17T04:36:47.487Z,89270.84
2023-01-17T04:39:33.386Z,89269.00
2023-01-17T04:42:19.249Z,89270.50
2023-01-17T04:45:05.294Z,89270.91
2023-01-17T04:47:51.105Z,89264.97
2023-01-17T04:50:36.901Z,89260.53
2023-01-17T04:53:22.837Z,89255.63
2023-01-17T04:56:08.689Z,89252.03
2023-01-17T04:58:54.689Z,89242.03
2023-01-17T05:01:40.718Z,89227.63
2023-01-17T05:04:26.605Z,89226.13
2023-01-17T05:07:12.500Z,89222.81
2023-01-17T05:09:58.390Z,89230.88
2023-01-17T05:12:44.206Z,89230.69
2023-01-17T05:15:30.116Z,89217.19
2023-01-17T05:18:15.999Z,89223.38
2023-01-17T05:21:03.940Z,89223.56
2023-01-17T05:23:49.997Z,89225.00
2023-01-17T05:26:35.872Z,89207.56
2023-01-17T05:29:21.977Z,89212.72
2023-01-17T05:32:07.887Z,89220.75
2023-01-17T05:34:53.552Z,89208.16
2023-01-17T05:37:39.463Z,89208.97
2023-01-17T05:40:25.294Z,89202.19
2023-01-17T05:43:11.075Z,89204.69
2023-01-17T05:45:57.125Z,89202.78
2023-01-17T05:48:44.945Z,89197.22
2023-01-17T05:51:30.898Z,89197.59
2023-01-17T05:54:16.756Z,89196.59
2023-01-17T05:57:02.572Z,89181.03
2023-01-17T05:59:48.620Z,89182.88
2023-01-17T06:02:34.570Z,89181.38
2023-01-17T06:05:20.440Z,89175.78
2023-01-17T06:08:06.443Z,89175.34
2023-01-17T06:10:52.232Z,89175.66
2023-01-17T06:13:38.140Z,89176.22
2023-01-17T06:16:24.230Z,89174.38
2023-01-17T06:19:10.120Z,89179.53
2023-01-17T06:21:56.118Z,89168.88
2023-01-17T06:24:42.093Z,89172.59
2023-01-17T06:27:29.928Z,89160.03
2023-01-17T06:30:15.984Z,89156.69
2023-01-17T06:33:01.885Z,89154.06
2023-01-17T06:35:47.840Z,89153.00
2023-01-17T06:38:33.820Z,89142.31
2023-01-17T06:41:19.418Z,89137.81
2023-01-17T06:44:05.238Z,89128.91
2023-01-17T06:46:51.303Z,89129.72
2023-01-17T06:49:37.097Z,89135.25
2023-01-17T06:52:23.018Z,89123.06
2023-01-17T06:55:08.723Z,89123.13
2023-01-17T06:57:54.560Z,89122.00
2023-01-17T07:00:41.158Z,89112.44
2023-01-17T07:03:27.518Z,89113.19
2023-01-17T07:06:13.657Z,89103.59
2023-01-17T07:08:59.692Z,89103.59
2023-01-17T07:11:45.526Z,89101.41
2023-01-17T07:14:31.344Z,89098.09
2023-01-17T07:17:17.285Z,89089.25
2023-01-17T07:20:03.221Z,89088.25
2023-01-17T07:22:49.037Z,89081.59
2023-01-17T07:25:34.769Z,89075.38
2023-01-17T07:28:20.709Z,89082.81
2023-01-17T07:31:06.625Z,89070.19
2023-01-17T07:33:52.439Z,89063.16
2023-01-17T07:36:38.316Z,89062.78
2023-01-17T07:39:24.211Z,89058.78
2023-01-17T07:42:10.049Z,89075.81
2023-01-17T07:44:56.003Z,89079.22
2023-01-17T07:47:41.860Z,89077.03
2023-01-17T07:50:27.731Z,89071.47
2023-01-17T07:53:13.552Z,89073.31
2023-01-17T07:55:59.515Z,89072.16
2023-01-17T07:58:45.442Z,89069.19
2023-01-17T08:01:31.523Z,89072.84
2023-01-17T08:04:17.892Z,89071.84
2023-01-17T08:07:03.922Z,89073.72
2023-01-17T08:09:49.943Z,89075.19
2023-01-17T08:12:35.914Z,89068.19
2023-01-17T08:15:21.875Z,89071.53
2023-01-17T08:18:07.769Z,89079.31
2023-01-17T08:20:53.689Z,89067.13
2023-01-17T08:23:39.456Z,89058.28
2023-01-17T08:26:25.273Z,89062.38
2023-01-17T08:29:11.234Z,89055.34
2023-01-17T08:31:57.191Z,89052.03
2023-01-17T08:34:43.074Z,89058.31
2023-01-17T08:37:29.066Z,89055.00
2023-01-17T08:40:15.709Z,89056.41
2023-01-17T08:43:01.734Z,89050.09
2023-01-17T08:45:47.606Z,89041.63
2023-01-17T08:48:33.436Z,89042.44
2023-01-17T08:51:19.245Z,89039.50
2023-01-17T08:54:05.034Z,89032.84
2023-01-17T08:56:51.024Z,89025.44
2023-01-17T08:59:36.856Z,89032.84
2023-01-17T09:02:22.857Z,89027.69
2023-01-17T09:05:08.759Z,89029.53
2023-01-17T09:07:54.525Z,89028.41
2023-01-17T09:10:40.589Z,89024.34
2023-01-17T09:13:26.544Z,89026.94
2023-01-17T09:16:12.463Z,89021.69
2023-01-17T09:18:58.481Z,89011.72
2023-01-17T09:21:44.351Z,89002.38
2023-01-17T09:24:30.174Z,88998.19
2023-01-17T09:27:16.131Z,88991.50
2023-01-17T09:30:01.995Z,88994.34
2023-01-17T09:32:47.938Z,88992.34
2023-01-17T09:35:33.643Z,88998.78
2023-01-17T09:38:19.546Z,88988.25
2023-01-17T09:41:05.532Z,88992.59
2023-01-17T09:43:51.236Z,89001.38
2023-01-17T09:46:37.286Z,88997.94
2023-01-17T09:49:23.143Z,88996.22
2023-01-17T09:52:09.076Z,88999.59
2023-01-17T09:54:54.940Z,88999.00
2023-01-17T09:57:40.718Z,88994.13
2023-01-17T10:00:26.563Z,88989.91
2023-01-17T10:03:12.584Z,88982.63
2023-01-17T10:05:58.825Z,88984.22
2023-01-17T10:08:44.748Z,88977.09
2023-01-17T10:11:30.885Z,88968.03
2023-01-17T10:14:16.781Z,88972.69
2023-01-17T10:17:02.664Z,88967.25
2023-01-17T10:19:48.489Z,88966.31
2023-01-17T10:22:34.399Z,88959.88
2023-01-17T10:25:20.424Z,88960.22
2023-01-17T10:28:06.230Z,88951.53
2023-01-17T10:30:52.133Z,88948.13
2023-01-17T10:33:38.002Z,88945.81
2023-01-17T10:36:24.023Z,88938.69
2023-01-17T10:39:09.933Z,88931.41
2023-01-17T10:41:55.838Z,88927.22
2023-01-17T10:44:41.846Z,88927.94
2023-01-17T10:47:27.898Z,88920.81
2023-01-17T10:50:15.754Z,88919.56
2023-01-17T10:53:01.605Z,88912.06
2023-01-17T10:55:47.506Z,88903.53
2023-01-17T10:58:33.452Z,88901.91
2023-01-17T11:01:19.576Z,88899.34
2023-01-17T11:04:05.782Z,88909.72
2023-01-17T11:06:58.169Z,88904.44
2023-01-17T11:09:44.249Z,88900.19
2023-01-17T11:12:30.255Z,88898.00
2023-01-17T11:15:16.145Z,88896.81
2023-01-17T11:18:02.069Z,88894.19
2023-01-17T11:20:48.116Z,88894.88
2023-01-17T11:23:33.943Z,88892.41
2023-01-17T11:26:19.794Z,88890.13
2023-01-17T11:29:05.689Z,88887.34
2023-01-17T11:31:51.617Z,88878.31
2023-01-17T11:34:37.517Z,88869.75
2023-01-17T11:37:23.361Z,88876.78
2023-01-17T11:40:09.216Z,88877.97
2023-01-17T11:42:55.190Z,88883.16
2023-01-17T11:45:41.052Z,88876.16
2023-01-17T11:48:27.092Z,88885.44
2023-01-17T11:51:12.948Z,88885.22
2023-01-17T11:53:58.900Z,88884.88
2023-01-17T11:56:44.827Z,88873.75
2023-01-17T11:59:30.639Z,88877.34
2023-01-17T12:02:16.581Z,88861.13
2023-01-17T12:05:02.526Z,88856.59
2023-01-17T12:07:50.428Z,88854.38
2023-01-17T12:10:36.397Z,88873.25
2023-01-17T12:13:22.364Z,88874.38
2023-01-17T12:16:08.278Z,88872.75
2023-01-17T12:18:54.161Z,88873.75
2023-01-17T12:21:40.022Z,88864.75
2023-01-17T12:24:26.009Z,88875.94
2023-01-17T12:27:11.878Z,88873.00
2023-01-17T12:29:57.779Z,88861.88
2023-01-17T12:32:44.132Z,88864.63
2023-01-17T12:35:30.166Z,88859.97
2023-01-17T12:38:27.389Z,88862.78
2023-01-17T12:41:17.413Z,88849.31
2023-01-17T12:44:03.262Z,88856.94
2023-01-17T12:46:49.352Z,88855.38
2023-01-17T12:49:37.380Z,88852.34
2023-01-17T12:52:23.197Z,88863.00
2023-01-17T12:55:09.032Z,88863.28
2023-01-17T12:57:54.894Z,88856.31
2023-01-17T13:00:40.916Z,88844.66
2023-01-17T13:03:26.804Z,88843.38
2023-01-17T13:06:12.766Z,88843.41
2023-01-17T13:08:58.577Z,88855.41
2023-01-17T13:11:44.499Z,88851.53
2023-01-17T13:14:30.416Z,88851.34
2023-01-17T13:17:16.312Z,88855.19
2023-01-17T13:20:02.342Z,88858.19
2023-01-17T13:22:48.324Z,88869.63
2023-01-17T13:25:34.258Z,88876.53
2023-01-17T13:28:20.005Z,88874.28
2023-01-17T13:31:05.917Z,88876.56
2023-01-17T13:33:51.922Z,88871.69
2023-01-17T13:36:37.942Z,88875.59
2023-01-17T13:39:24.042Z,88866.47
2023-01-17T13:42:09.783Z,88875.53
2023-01-17T13:44:55.690Z,88882.53
2023-01-17T13:47:41.750Z,88891.78
2023-01-17T13:50:27.569Z,88897.44
2023-01-17T13:53:13.653Z,88897.13
2023-01-17T13:55:59.842Z,88899.00
2023-01-17T13:58:45.657Z,88903.75
2023-01-17T14:01:31.638Z,88900.19
2023-01-17T14:04:17.715Z,88905.63
2023-01-17T14:07:03.697Z,88890.81
2023-01-17T14:09:49.570Z,88903.16
2023-01-17T14:12:35.403Z,88902.78
2023-01-17T14:15:21.370Z,88909.91
2023-01-17T14:18:07.286Z,88906.88
2023-01-17T14:20:53.177Z,88906.59
2023-01-17T14:23:39.023Z,88905.50
2023-01-17T14:26:24.763Z,88912.56
2023-01-17T14:29:10.724Z,88918.53
2023-01-17T14:31:56.677Z,88912.97
2023-01-17T14:34:42.640Z,88926.81
2023-01-17T14:37:28.531Z,88925.16
2023-01-17T14:40:14.447Z,88924.81
2023-01-17T14:43:00.392Z,88928.03
2023-01-17T14:45:46.297Z,88933.00
2023-01-17T14:48:32.147Z,88930.16
2023-01-17T14:51:18.166Z,88928.03
2023-01-17T14:54:03.993Z,88926.94
2023-01-17T14:56:49.900Z,88932.31
2023-01-17T14:59:35.836Z,88930.84
2023-01-17T15:02:21.979Z,88937.44
2023-01-17T15:05:08.238Z,88941.94
2023-01-17T15:07:54.129Z,88935.09
2023-01-17T15:10:40.022Z,88930.31
2023-01-17T15:13:42.751Z,88932.63
2023-01-17T15:16:29.787Z,88933.69
2023-01-17T15:19:15.691Z,88931.63
2023-01-17T15:22:01.673Z,88932.81
2023-01-17T15:24:47.847Z,88937.34
2023-01-17T15:27:33.890Z,88936.34
2023-01-17T15:30:19.884Z,88947.44
2023-01-17T15:33:05.795Z,88948.88
2023-01-17T15:35:51.714Z,88952.25
2023-01-17T15:38:39.225Z,88953.41
2023-01-17T15:41:25.766Z,88954.16
2023-01-17T15:44:11.748Z,88960.75
2023-01-17T15:46:57.634Z,88961.88
2023-01-17T15:49:43.523Z,88953.63
2023-01-17T15:52:29.388Z,88960.66
2023-01-17T15:55:15.316Z,88969.47
2023-01-17T15:58:01.208Z,88974.97
2023-01-17T16:00:47.287Z,88972.16
2023-01-17T16:03:33.393Z,88969.09
2023-01-17T16:06:19.325Z,88968.78
2023-01-17T16:09:05.096Z,88975.59
2023-01-17T16:11:50.919Z,88984.13
2023-01-17T16:14:53.471Z,88993.13
2023-01-17T16:17:42.789Z,89003.47
2023-01-17T16:20:28.737Z,88992.38
2023-01-17T16:23:14.558Z,88992.47
2023-01-17T16:26:00.553Z,88991.41
2023-01-17T16:28:46.514Z,88992.09
2023-01-17T16:31:32.415Z,88986.78
2023-01-17T16:34:18.195Z,88987.78
2023-01-17T16:37:03.999Z,88987.47
2023-01-17T16:39:49.860Z,88988.44
2023-01-17T16:42:35.732Z,88989.63
2023-01-17T16:45:21.654Z,88987.09
2023-01-17T16:48:07.668Z,88982.81
2023-01-17T16:50:53.512Z,88980.63
2023-01-17T16:53:39.407Z,88976.28
2023-01-17T16:56:25.246Z,88979.00
2023-01-17T16:59:11.124Z,88979.16
2023-01-17T17:01:56.905Z,88973.06
2023-01-17T17:04:42.826Z,88969.47
2023-01-17T17:07:28.768Z,88962.03
2023-01-17T17:10:14.738Z,88955.44
2023-01-17T17:13:02.826Z,88959.97
2023-01-17T17:15:49.133Z,88960.53
2023-01-17T17:18:35.161Z,88974.19
2023-01-17T17:21:21.095Z,88965.66
2023-01-17T17:24:07.031Z,88983.06
2023-01-17T17:26:52.958Z,88982.13
2023-01-17T17:29:38.969Z,88989.16
2023-01-17T17:32:24.943Z,88991.75
2023-01-17T17:35:10.876Z,89002.16
2023-01-17T17:37:56.811Z,89008.72
2023-01-17T17:40:42.752Z,89010.25
2023-01-17T17:43:28.517Z,89018.34
2023-01-17T17:46:14.545Z,89023.81
2023-01-17T17:49:00.414Z,89026.44
2023-01-17T17:51:46.310Z,89040.22
2023-01-17T17:54:32.166Z,89043.69
2023-01-17T17:57:18.011Z,89045.25
2023-01-17T18:00:03.868Z,89048.94
2023-01-17T18:02:49.862Z,89050.66
2023-01-17T18:05:35.918Z,89051.19
2023-01-17T18:08:21.860Z,89057.53
2023-01-17T18:11:07.910Z,89058.00
2023-01-17T18:13:53.725Z,89064.38
2023-01-17T18:16:39.685Z,89061.47
2023-01-17T18:19:25.563Z,89070.31
2023-01-17T18:22:11.428Z,89072.84
2023-01-17T18:24:57.309Z,89068.06
2023-01-17T18:27:43.160Z,89071.38
2023-01-17T18:30:29.160Z,89081.84
2023-01-17T18:33:15.035Z,89077.63
2023-01-17T18:36:03.238Z,89076.78
2023-01-17T18:38:50.705Z,89075.09
2023-01-17T18:41:36.528Z,89068.53
2023-01-17T18:44:22.814Z,89082.75
2023-01-17T18:47:09.016Z,89077.84
2023-01-17T18:49:54.974Z,89071.50
2023-01-17T18:52:40.773Z,89080.78
2023-01-17T18:55:26.705Z,89086.03
2023-01-17T18:58:12.816Z,89078.09
2023-01-17T19:00:58.845Z,89082.44
2023-01-17T19:03:45.046Z,89075.94
2023-01-17T19:06:31.154Z,89079.91
2023-01-17T19:09:17.095Z,89073.16
2023-01-17T19:12:03.026Z,89089.06
2023-01-17T19:14:49.052Z,89087.13
2023-01-17T19:17:35.056Z,89082.25
2023-01-17T19:20:20.976Z,89085.22
2023-01-17T19:23:06.841Z,89083.34
2023-01-17T19:25:52.762Z,89093.47
2023-01-17T19:28:38.744Z,89079.94
2023-01-17T19:31:24.709Z,89085.78
2023-01-17T19:34:10.775Z,89086.94
2023-01-17T19:36:56.816Z,89083.59
2023-01-17T19:39:43.022Z,89084.38
2023-01-17T19:42:28.818Z,89088.41
2023-01-17T19:45:14.665Z,89091.56
2023-01-17T19:48:00.515Z,89093.44
2023-01-17T19:50:46.273Z,89090.94
2023-01-17T19:53:32.653Z,89083.97
2023-01-17T19:56:18.597Z,89090.25
2023-01-17T19:59:04.597Z,89085.38
2023-01-17T20:01:50.692Z,89088.66
2023-01-17T20:04:36.928Z,89096.56
2023-01-17T20:07:22.883Z,89098.78
2023-01-17T20:10:08.788Z,89107.53
2023-01-17T20:12:54.690Z,89102.66
2023-01-17T20:15:40.557Z,89103.44
2023-01-17T20:18:26.327Z,89105.38
2023-01-17T20:21:12.277Z,89107.22
2023-01-17T20:23:58.187Z,89106.91
2023-01-17T20:26:44.303Z,89115.47
2023-01-17T20:29:30.270Z,89115.31
2023-01-17T20:32:15.999Z,89117.06
2023-01-17T20:35:01.831Z,89120.19
2023-01-17T20:37:47.781Z,89129.31
2023-01-17T20:40:33.533Z,89116.63
2023-01-17T20:43:19.480Z,89117.25
2023-01-17T20:46:05.517Z,89119.28
2023-01-17T20:48:51.837Z,89113.97
2023-01-17T20:51:37.813Z,89118.50
2023-01-17T20:54:24.657Z,89119.16
2023-01-17T20:57:10.594Z,89119.25
2023-01-17T20:59:56.629Z,89124.56
2023-01-17T21:02:42.402Z,89118.59
2023-01-17T21:05:28.358Z,89136.31
2023-01-17T21:08:14.201Z,89134.16
2023-01-17T21:11:00.112Z,89141.63
2023-01-17T21:13:45.925Z,89135.66
2023-01-17T21:16:31.829Z,89149.00
2023-01-17T21:19:17.739Z,89156.13
2023-01-17T21:22:03.824Z,89154.13
2023-01-17T21:24:49.628Z,89156.34
2023-01-17T21:27:35.683Z,89150.28
2023-01-17T21:30:21.488Z,89166.84
2023-01-17T21:33:07.185Z,89168.28
2023-01-17T21:35:53.166Z,89171.28
2023-01-17T21:38:39.073Z,89167.47
2023-01-17T21:41:24.944Z,89177.13
2023-01-17T21:44:10.842Z,89187.66
2023-01-17T21:46:56.736Z,89179.69
2023-01-17T21:49:42.791Z,89195.72
2023-01-17T21:52:30.784Z,89202.94
2023-01-17T21:55:16.500Z,89202.03
2023-01-17T21:58:02.494Z,89203.28
2023-01-17T22:00:48.268Z,89209.34
2023-01-17T22:03:34.280Z,89210.03
2023-01-17T22:06:20.313Z,89215.25
2023-01-17T22:09:06.241Z,89207.56
2023-01-17T22:11:52.109Z,89220.00
2023-01-17T22:14:37.994Z,89220.97
2023-01-17T22:17:24.020Z,89227.38
2023-01-17T22:20:09.976Z,89229.66
2023-01-17T22:22:56.216Z,89225.94
2023-01-17T22:25:42.256Z,89221.19
2023-01-17T22:28:28.112Z,89222.69
2023-01-17T22:31:13.872Z,89225.13
2023-01-17T22:33:59.862Z,89226.13
2023-01-17T22:36:45.681Z,89224.34
2023-01-17T22:39:31.433Z,89228.53
2023-01-17T22:42:17.393Z,89230.47
2023-01-17T22:45:03.306Z,89235.88
2023-01-17T22:47:49.057Z,89241.63
2023-01-17T22:50:34.932Z,89243.88
2023-01-17T22:53:20.724Z,89243.16
2023-01-17T22:56:06.586Z,89245.38
2023-01-17T22:58:52.436Z,89245.63
2023-01-17T23:01:38.310Z,89246.66
2023-01-17T23:04:24.244Z,89249.34
2023-01-17T23:07:10.107Z,89252.25
2023-01-17T23:09:55.970Z,89248.66
2023-01-17T23:12:41.923Z,89254.09
2023-01-17T23:15:27.742Z,89248.06
2023-01-17T23:18:13.604Z,89246.06
2023-01-17T23:20:59.436Z,89253.78
2023-01-17T23:23:45.319Z,89252.06
2023-01-17T23:26:31.389Z,89250.00
2023-01-17T23:29:17.285Z,89239.06
2023-01-17T23:32:03.484Z,89241.06
2023-01-17T23:34:49.352Z,89257.94
2023-01-17T23:37:35.311Z,89248.09
2023-01-17T23:40:21.337Z,89255.31
2023-01-17T23:43:07.134Z,89251.09
2023-01-17T23:45:53.007Z,89258.16
2023-01-17T23:48:38.927Z,89264.00
2023-01-17T23:51:24.712Z,89265.25
2023-01-17T23:54:10.537Z,89267.16
2023-01-17T23:56:56.298Z,89272.38
2023-01-17T23:59:42.244Z,89253.84
